• Join FlightAware (Why Join?)
  • Login
  • US Flag 
10:59AM EDT


 

Airport Tracker/Info


-or-


 

Live Flight TrackerFlight Track Log ✈ CHH7748 ✈ 02-Aug-2013 ✈ ZWSH / KHG - ZWWW / URC

Flight Track Log - Related Links

Times and Time Zones

All times are in EDT time to prevent confusion due to time zone crossing. See the CHH7748 flight status page for this flight to view local times or setup timezone preferences in your user account.

Time Position Orientation Groundspeed Altitude Reporting Facility
EDT Latitude Longitude Course Direction KTS MPH feet Rate Location/Type
11:34PM 39.6086 76.1631 59° Northeast  Level Estimated
11:35PM 39.6737 76.3059 59° Northeast  Level Estimated
11:36PM 39.7387 76.4490 59° Northeast  Level Estimated
11:37PM 39.8035 76.5923 59° Northeast  Level Estimated
11:38PM 39.8681 76.7359 60° Northeast  Level Estimated
11:39PM 39.9325 76.8798 60° Northeast  Level Estimated
11:40PM 39.9968 77.0239 60° Northeast  Level Estimated
11:41PM 40.0609 77.1683 60° Northeast  Level Estimated
11:42PM 40.1248 77.3130 60° Northeast  Level Estimated
11:43PM 40.1885 77.4580 60° Northeast  Level Estimated
11:44PM 40.2520 77.6032 60° Northeast  Level Estimated
11:45PM 40.3154 77.7487 60° Northeast  Level Estimated
11:46PM 40.3786 77.8945 60° Northeast  Level Estimated
11:47PM 40.4416 78.0405 60° Northeast  Level Estimated
11:48PM 40.5044 78.1868 61° Northeast  Level Estimated
11:49PM 40.5670 78.3334 61° Northeast  Level Estimated
11:50PM 40.6295 78.4803 61° Northeast  Level Estimated
11:51PM 40.6917 78.6274 61° Northeast  Level Estimated
11:52PM 40.7538 78.7748 61° Northeast  Level Estimated
11:53PM 40.8157 78.9225 61° Northeast  Level Estimated
11:54PM 40.8773 79.0705 61° Northeast  Level Estimated
11:55PM 40.9389 79.2187 61° Northeast  Level Estimated
11:56PM 41.0002 79.3673 61° Northeast  Level Estimated
11:57PM 41.0613 79.5161 61° Northeast  Level Estimated
11:58PM 41.1222 79.6651 61° Northeast  Level Estimated
11:59PM 41.1829 79.8145 62° Northeast  Level Estimated
12:00AM 41.2435 79.9641 62° Northeast  Level Estimated
12:01AM 41.3038 80.1140 62° Northeast  Level Estimated
12:02AM 41.3640 80.2642 62° Northeast  Level Estimated
12:03AM 41.4240 80.4146 62° Northeast  Level Estimated
12:04AM 41.4837 80.5654 62° Northeast  Level Estimated
12:05AM 41.5433 80.7164 62° Northeast  Level Estimated
12:06AM 41.6026 80.8677 62° Northeast  Level Estimated
12:07AM 41.6618 81.0192 62° Northeast  Level Estimated
12:08AM 41.7200 81.1691 62° Northeast  Level Estimated
12:09AM 41.7780 81.3192 63° Northeast  Level Estimated
12:10AM 41.8358 81.4696 63° Northeast  Level Estimated
12:11AM 41.8934 81.6202 63° Northeast  Level Estimated
12:12AM 41.9508 81.7712 63° Northeast  Level Estimated
12:13AM 42.0080 81.9224 63° Northeast  Level Estimated
12:14AM 42.0650 82.0739 63° Northeast  Level Estimated
12:15AM 42.1218 82.2256 63° Northeast  Level Estimated
12:16AM 42.1785 82.3776 63° Northeast  Level Estimated
12:17AM 42.2349 82.5299 63° Northeast  Level Estimated
12:18AM 42.2911 82.6825 63° Northeast  Level Estimated
12:19AM 42.3471 82.8353 64° Northeast  Level Estimated
12:20AM 42.4029 82.9884 64° Northeast  Level Estimated
12:21AM 42.4585 83.1418 64° Northeast  Level Estimated
12:22AM 42.5139 83.2954 64° Northeast  Level Estimated
12:23AM 42.5691 83.4494 64° Northeast  Level Estimated
12:24AM 42.6241 83.6036 64° Northeast  Level Estimated
12:25AM 42.6788 83.7580 64° Northeast  Level Estimated
12:26AM 42.7334 83.9128 64° Northeast  Level Estimated
12:27AM 42.7878 84.0678 64° Northeast  Level Estimated
12:28AM 42.8419 84.2231 65° Northeast  Level Estimated
12:29AM 42.8959 84.3786 65° Northeast  Level Estimated
12:30AM 42.9496 84.5344 65° Northeast  Level Estimated
12:31AM 43.0031 84.6905 65° Northeast  Level Estimated
12:32AM 43.0564 84.8469 65° Northeast  Level Estimated
12:33AM 43.1095 85.0035 65° Northeast  Level Estimated
12:34AM 43.1624 85.1605 65° Northeast  Level Estimated
12:35AM 43.2150 85.3176 65° Northeast  Level Estimated
12:36AM 43.2675 85.4751 65° Northeast  Level Estimated
12:37AM 43.3197 85.6328 65° Northeast  Level Estimated
12:38AM 43.3717 85.7908 66° East  Level Estimated
12:39AM 43.4235 85.9491 66° East  Level Estimated
12:40AM 43.4751 86.1076 66° East  Level Estimated
12:41AM 43.5265 86.2664 66° East  Level Estimated
12:42AM 43.5776 86.4255 66° East  Level Estimated
12:43AM 43.6285 86.5849 66° East  Level Estimated
12:44AM 43.6792 86.7445 66° East  Level Estimated
12:45AM 43.7297 86.9044 66° East  Level Estimated
12:46AM 43.7799 87.0645 66° East  Level Estimated
12:47AM 43.8300 87.2250 67° East  Level Estimated
12:48AM 43.8798 87.3857 67° East  Level Estimated
12:49AM 43.9071 87.4742 67° East  Level Estimated
12:50AM 43.9071 87.4742 144° Southeast  Level Estimated
12:51AM 43.9071 87.4742 144° Southeast  Level Estimated
12:52AM 43.9071 87.4742 144° Southeast  Level Estimated
12:53AM 43.9071 87.4742 144° Southeast  Level Estimated
12:54AM 43.9071 87.4742 144° Southeast  Level Estimated
12:55AM 43.9071 87.4742 144° Southeast  Level Estimated
12:56AM 43.9071 87.4742 144° Southeast  Level Estimated
12:57AM 43.9071 87.4742 144° Southeast  Level Estimated
12:58AM 43.9071 87.4742 144° Southeast  Level Estimated
12:59AM 43.9071 87.4742 144° Southeast  Level Estimated
01:00AM 43.9071 87.4742 144° Southeast  Level Estimated
01:01AM 43.9071 87.4742 144° Southeast  Level Estimated
01:02AM 43.9071 87.4742 144° Southeast  Level Estimated
01:03AM 43.9071 87.4742 144° Southeast  Level Estimated
01:04AM 43.9071 87.4742 144° Southeast  Level Estimated
01:05AM 43.9071 87.4742 144° Southeast  Level Estimated
01:06AM 43.9071 87.4742 144° Southeast  Level Estimated